Wakenda, Missouri
Current Conditions -  °F | °C
As of 5:58 PM on Sunday 21 Dec 2014 (Local Time) from KSZL Reporting Station
Broken Clouds Broken Clouds  
Wind Chill: 38°   Ceiling: 4400
Heat Index: 43°   Visibility: 10mi
Dew Point: 38°   Wind: 10mph
Humidity: 82%   Direction: 160°SSE
Pressure: 29.87"   Gusts: NA
Location:  39.32°N, 93.38°W
Report Text: KSZL 212358Z AUTO 16009KT 10SM BKN044 06/04 A2987 RMK AO2 SLP121 60000 T00630035 10069 20061 400690033 57006 $
Loading
Personal Weather Stations






























Interactive Weather Map New forecast layout! Learn more

10-Day Weather Forecast

Advertisements
Track Severe Weather on mobile